createdAt,value
2022-10-26T00:00:33.864Z,100844.94
2022-10-26T00:03:20.599Z,100843.16
2022-10-26T00:06:07.328Z,100844.03
2022-10-26T00:08:54.320Z,100837.88
2022-10-26T00:11:41.163Z,100843.16
2022-10-26T00:14:27.950Z,100838.78
2022-10-26T00:17:14.723Z,100837.00
2022-10-26T00:20:01.458Z,100837.88
2022-10-26T00:22:48.227Z,100835.28
2022-10-26T00:25:35.168Z,100837.09
2022-10-26T00:28:21.895Z,100829.97
2022-10-26T00:31:08.711Z,100828.22
2022-10-26T00:33:55.801Z,100829.97
2022-10-26T00:36:43.710Z,100833.53
2022-10-26T00:39:33.110Z,100822.94
2022-10-26T00:42:19.817Z,100824.75
2022-10-26T00:45:09.503Z,100829.16
2022-10-26T00:47:56.151Z,100824.75
2022-10-26T00:50:48.932Z,100830.88
2022-10-26T00:53:36.004Z,100828.22
2022-10-26T00:56:23.489Z,100780.91
2022-10-26T00:59:10.727Z,100822.16
2022-10-26T01:02:00.831Z,100828.28
2022-10-26T01:04:47.601Z,100831.81
2022-10-26T01:07:34.869Z,100819.50
2022-10-26T01:10:21.911Z,100803.13
2022-10-26T01:13:09.341Z,100816.88
2022-10-26T01:16:02.004Z,100821.22
2022-10-26T01:18:54.487Z,100808.06
2022-10-26T01:21:44.310Z,100815.13
2022-10-26T01:25:06.289Z,100807.19
2022-10-26T01:27:59.129Z,100816.06
2022-10-26T01:30:48.656Z,100809.88
2022-10-26T01:33:51.021Z,100813.47
2022-10-26T01:36:56.379Z,100814.34
2022-10-26T01:40:08.882Z,100791.91
2022-10-26T01:42:59.426Z,100806.47
2022-10-26T01:45:47.934Z,100813.47
2022-10-26T01:48:38.916Z,100807.31
2022-10-26T01:51:27.389Z,100816.19
2022-10-26T01:54:14.448Z,100809.22
2022-10-26T01:57:04.403Z,100816.19
2022-10-26T01:59:59.863Z,100810.00
2022-10-26T02:02:49.665Z,100805.66
2022-10-26T02:06:00.664Z,100811.88
2022-10-26T02:08:53.765Z,100811.88
2022-10-26T02:11:49.545Z,100806.66
2022-10-26T02:15:03.501Z,100802.25
2022-10-26T02:17:59.484Z,100793.66
2022-10-26T02:20:54.445Z,100798.81
2022-10-26T02:23:45.029Z,100800.59
2022-10-26T02:26:34.860Z,100806.81
2022-10-26T02:29:26.130Z,100800.84
2022-10-26T02:32:13.892Z,100811.31
2022-10-26T02:35:04.717Z,100800.78
2022-10-26T02:37:54.584Z,100795.56
2022-10-26T02:40:45.660Z,100802.63
2022-10-26T02:43:35.278Z,100799.13
2022-10-26T02:46:29.015Z,100803.56
2022-10-26T02:49:16.864Z,100800.09
2022-10-26T02:52:32.135Z,100801.91
2022-10-26T02:55:48.416Z,100756.88
2022-10-26T02:58:40.882Z,100794.03
2022-10-26T03:01:28.404Z,100794.97
2022-10-26T03:04:18.997Z,100801.16
2022-10-26T03:07:15.493Z,100775.22
2022-10-26T03:10:02.243Z,100793.31
2022-10-26T03:12:49.198Z,100789.06
2022-10-26T03:15:36.179Z,100726.84
2022-10-26T03:18:23.108Z,100786.34
2022-10-26T03:21:09.796Z,100792.56
2022-10-26T03:23:56.488Z,100778.84
2022-10-26T03:26:43.243Z,100786.47
2022-10-26T03:29:30.118Z,100782.97
2022-10-26T03:32:16.822Z,100787.47
2022-10-26T03:35:03.615Z,100787.47
2022-10-26T03:37:51.554Z,100781.28
2022-10-26T03:40:38.582Z,100781.28
2022-10-26T03:43:25.284Z,100780.56
2022-10-26T03:46:12.016Z,100777.94
2022-10-26T03:48:58.693Z,100779.59
2022-10-26T03:51:45.393Z,100785.75
2022-10-26T03:54:32.104Z,100783.09
2022-10-26T03:57:18.811Z,100780.47
2022-10-26T04:00:05.504Z,100781.34
2022-10-26T04:02:58.378Z,100776.94
2022-10-26T04:05:47.576Z,100784.88
2022-10-26T04:08:34.407Z,100786.66
2022-10-26T04:11:21.141Z,100777.94
2022-10-26T04:14:08.033Z,100778.72
2022-10-26T04:16:54.733Z,100785.75
2022-10-26T04:19:41.540Z,100782.22
2022-10-26T04:22:28.201Z,100778.72
2022-10-26T04:25:14.915Z,100780.47
2022-10-26T04:28:01.627Z,100774.28
2022-10-26T04:30:48.365Z,100768.19
2022-10-26T04:33:35.113Z,100776.13
2022-10-26T04:36:22.268Z,100776.06
2022-10-26T04:39:09.535Z,100778.72
2022-10-26T04:41:56.247Z,100770.84
2022-10-26T04:44:43.003Z,100775.22
2022-10-26T04:47:29.731Z,100766.59
2022-10-26T04:50:16.411Z,100765.53
2022-10-26T04:53:10.442Z,100770.84
2022-10-26T04:55:57.328Z,100699.28
2022-10-26T04:58:44.049Z,100770.84
2022-10-26T05:01:30.879Z,100658.84
2022-10-26T05:04:17.633Z,100774.47
2022-10-26T05:07:04.364Z,100777.13
2022-10-26T05:09:51.117Z,100781.53
2022-10-26T05:12:37.816Z,100759.09
2022-10-26T05:15:25.194Z,100779.81
2022-10-26T05:18:20.012Z,100777.25
2022-10-26T05:21:06.733Z,100779.00
2022-10-26T05:23:49.387Z,100780.81
2022-10-26T05:26:36.125Z,100785.16
2022-10-26T05:29:22.818Z,100787.81
2022-10-26T05:32:09.504Z,100786.09
2022-10-26T05:34:56.313Z,100790.63
2022-10-26T05:37:43.043Z,100750.00
2022-10-26T05:40:30.615Z,100792.28
2022-10-26T05:43:21.136Z,100789.78
2022-10-26T05:46:10.391Z,100793.22
2022-10-26T05:48:57.082Z,100802.09
2022-10-26T05:51:43.846Z,100803.88
2022-10-26T05:54:30.596Z,100798.63
2022-10-26T05:57:17.600Z,100794.28
2022-10-26T06:00:04.575Z,100801.34
2022-10-26T06:06:19.099Z,100786.53
2022-10-26T06:09:06.112Z,100796.09
2022-10-26T06:11:53.108Z,100792.59
2022-10-26T06:14:40.106Z,100797.91
2022-10-26T06:17:42.037Z,100797.97
2022-10-26T06:20:49.604Z,100783.97
2022-10-26T06:24:00.243Z,100794.53
2022-10-26T06:26:35.933Z,100694.53
2022-10-26T06:29:13.129Z,100802.53
2022-10-26T06:31:40.073Z,100761.16
2022-10-26T06:34:06.932Z,100786.25
2022-10-26T06:36:34.232Z,100808.81
2022-10-26T06:39:04.724Z,100806.19
2022-10-26T06:41:33.388Z,100805.31
2022-10-26T06:44:02.719Z,100807.13
2022-10-26T06:46:41.388Z,100808.06
2022-10-26T06:49:29.008Z,100789.84
2022-10-26T06:52:22.395Z,100808.13
2022-10-26T06:54:52.205Z,100809.94
2022-10-26T06:57:21.432Z,100808.19
2022-10-26T07:00:14.250Z,100812.63
2022-10-26T07:03:01.004Z,100810.88
2022-10-26T07:05:48.099Z,100810.03
2022-10-26T07:08:34.836Z,100805.59
2022-10-26T07:11:21.697Z,100744.34
2022-10-26T07:14:08.413Z,100809.16
2022-10-26T07:16:55.117Z,100810.94
2022-10-26T07:19:41.817Z,100805.09
2022-10-26T07:22:28.556Z,100808.53
2022-10-26T07:25:15.308Z,100823.25
2022-10-26T07:28:02.001Z,100824.09
2022-10-26T07:30:53.915Z,100828.53
2022-10-26T07:33:42.783Z,100832.91
2022-10-26T07:36:29.556Z,100824.09
2022-10-26T07:39:16.351Z,100829.38
2022-10-26T07:42:04.735Z,100830.31
2022-10-26T07:44:51.495Z,100834.72
2022-10-26T07:47:38.279Z,100831.25
2022-10-26T07:50:25.576Z,100820.03
2022-10-26T07:53:12.270Z,100832.09
2022-10-26T07:55:59.143Z,100834.72
2022-10-26T07:58:45.981Z,100843.53
2022-10-26T08:01:35.541Z,100833.84
2022-10-26T08:04:22.350Z,100839.13
2022-10-26T08:07:09.051Z,100836.47
2022-10-26T08:09:55.752Z,100841.75
2022-10-26T08:12:42.520Z,100842.66
2022-10-26T08:15:29.801Z,100833.94
2022-10-26T08:18:16.517Z,100846.25
2022-10-26T08:21:10.786Z,100847.13
2022-10-26T08:23:59.149Z,100844.34
2022-10-26T08:26:45.832Z,100848.72
2022-10-26T08:29:32.521Z,100849.53
2022-10-26T08:32:19.227Z,100844.25
2022-10-26T08:35:05.987Z,100848.50
2022-10-26T08:37:52.705Z,100849.25
2022-10-26T08:40:47.060Z,100849.25
2022-10-26T08:43:42.248Z,100841.38
2022-10-26T08:46:31.519Z,100849.94
2022-10-26T08:49:37.340Z,100849.88
2022-10-26T08:52:25.761Z,100852.41
2022-10-26T08:54:56.645Z,100803.13
2022-10-26T08:57:33.948Z,100858.38
2022-10-26T09:00:05.069Z,100857.41
2022-10-26T09:02:31.869Z,100849.59
2022-10-26T09:04:59.865Z,100861.59
2022-10-26T09:07:56.868Z,100867.75
2022-10-26T09:11:01.284Z,100857.84
2022-10-26T09:14:29.981Z,100870.94
2022-10-26T09:17:45.015Z,100872.59
2022-10-26T09:20:34.911Z,100874.19
2022-10-26T09:23:56.483Z,100868.78
2022-10-26T09:30:00.955Z,100872.06
2022-10-26T09:33:04.384Z,100834.84
2022-10-26T09:36:11.830Z,100881.47
2022-10-26T09:39:09.102Z,100797.69
2022-10-26T09:42:13.131Z,100868.88
2022-10-26T09:45:09.196Z,100867.91
2022-10-26T09:47:59.551Z,100861.56
2022-10-26T09:50:53.375Z,100857.91
2022-10-26T09:53:40.087Z,100865.88
2022-10-26T09:56:30.275Z,100863.97
2022-10-26T09:59:24.071Z,100864.72
2022-10-26T10:02:10.989Z,100866.38
2022-10-26T10:05:06.947Z,100863.59
2022-10-26T10:07:53.651Z,100861.84
2022-10-26T10:10:42.974Z,100858.19
2022-10-26T10:13:37.397Z,100868.78
2022-10-26T10:16:30.351Z,100865.19
2022-10-26T10:19:20.779Z,100877.53
2022-10-26T10:22:12.223Z,100870.63
2022-10-26T10:25:12.732Z,100880.06
2022-10-26T10:28:13.453Z,100879.13
2022-10-26T10:31:12.884Z,100880.84
2022-10-26T10:34:01.763Z,100881.66
2022-10-26T10:36:50.149Z,100877.28
2022-10-26T10:40:00.385Z,100877.28
2022-10-26T10:43:00.273Z,100876.66
2022-10-26T10:45:49.856Z,100880.69
2022-10-26T10:48:42.715Z,100893.88
2022-10-26T10:51:32.557Z,100896.47
2022-10-26T10:54:19.278Z,100890.16
2022-10-26T10:57:12.002Z,100891.88
2022-10-26T11:00:18.968Z,100904.16
2022-10-26T11:03:12.021Z,100904.94
2022-10-26T11:06:01.644Z,100907.47
2022-10-26T11:08:57.597Z,100927.75
2022-10-26T11:12:05.741Z,100918.88
2022-10-26T11:14:58.106Z,100880.63
2022-10-26T11:17:51.133Z,100909.91
2022-10-26T11:20:43.052Z,100898.34
2022-10-26T11:23:35.650Z,100900.94
2022-10-26T11:26:52.785Z,100897.63
2022-10-26T11:30:07.619Z,100904.25
2022-10-26T11:33:14.823Z,100891.88
2022-10-26T11:36:26.128Z,100897.09
2022-10-26T11:39:30.963Z,100896.19
2022-10-26T11:42:30.157Z,100902.28
2022-10-26T11:45:36.524Z,100902.28
2022-10-26T11:48:40.980Z,100899.88
2022-10-26T11:51:50.586Z,100915.47
2022-10-26T11:54:46.023Z,100919.81
2022-10-26T11:57:34.596Z,100910.03
2022-10-26T12:00:25.743Z,100918.81
2022-10-26T12:03:32.913Z,100920.56
2022-10-26T12:06:19.652Z,100916.16
2022-10-26T12:09:35.587Z,100919.63
2022-10-26T12:12:41.970Z,100924.91
2022-10-26T12:16:03.612Z,100924.91
2022-10-26T12:18:59.358Z,100927.56
2022-10-26T12:21:51.959Z,100923.09
2022-10-26T12:24:50.777Z,100930.16
2022-10-26T12:27:59.384Z,100938.94
2022-10-26T12:30:50.382Z,100908.66
2022-10-26T12:33:50.628Z,100934.44
2022-10-26T12:37:08.481Z,100942.34
2022-10-26T12:39:57.455Z,100949.34
2022-10-26T12:42:44.170Z,100946.72
2022-10-26T12:45:40.288Z,100943.41
2022-10-26T12:48:43.105Z,100955.66
2022-10-26T12:51:42.003Z,100956.53
2022-10-26T12:54:46.876Z,100961.78
2022-10-26T12:57:39.219Z,100954.59
2022-10-26T13:00:33.105Z,100965.19
2022-10-26T13:03:44.451Z,100955.47
2022-10-26T13:07:19.454Z,100959.00
2022-10-26T13:10:17.662Z,100966.00
2022-10-26T13:13:17.091Z,100896.41
2022-10-26T13:16:15.675Z,100967.06
2022-10-26T13:19:05.254Z,100962.69
2022-10-26T13:22:05.504Z,100965.25
2022-10-26T13:24:55.211Z,100948.09
2022-10-26T13:27:44.915Z,100967.84
2022-10-26T13:30:41.031Z,100973.16
2022-10-26T13:33:41.601Z,100975.88
2022-10-26T13:36:45.952Z,100982.03
2022-10-26T13:39:40.764Z,100986.47
2022-10-26T13:42:31.992Z,100981.16
2022-10-26T13:45:52.829Z,100990.06
2022-10-26T13:48:55.837Z,100991.84
2022-10-26T13:51:46.167Z,100998.00
2022-10-26T13:54:48.536Z,100998.00
2022-10-26T13:57:59.188Z,101009.50
2022-10-26T14:00:46.053Z,101008.63
2022-10-26T14:03:39.404Z,100998.31
2022-10-26T14:06:50.753Z,101021.88
2022-10-26T14:09:19.480Z,101013.91
2022-10-26T14:12:01.866Z,101017.50
2022-10-26T14:14:35.295Z,101021.94
2022-10-26T14:17:03.147Z,101017.69
2022-10-26T14:19:34.009Z,101027.34
2022-10-26T14:22:01.445Z,101023.03
2022-10-26T14:24:46.150Z,101023.09
2022-10-26T14:27:18.694Z,101029.38
2022-10-26T14:29:49.798Z,101023.28
2022-10-26T14:32:27.012Z,101023.41
2022-10-26T14:34:54.835Z,100980.16
2022-10-26T14:37:35.752Z,101017.34
2022-10-26T14:40:03.728Z,101029.78
2022-10-26T14:42:40.969Z,101029.09
2022-10-26T14:45:29.619Z,101027.38
2022-10-26T14:48:06.651Z,101027.44
2022-10-26T14:50:36.228Z,100975.75
2022-10-26T14:53:13.881Z,101032.91
2022-10-26T14:55:48.211Z,101033.03
2022-10-26T14:58:26.752Z,101027.84
2022-10-26T15:01:22.209Z,101030.63
2022-10-26T15:03:59.901Z,101026.31
2022-10-26T15:06:29.666Z,101038.81
2022-10-26T15:09:01.012Z,101038.97
2022-10-26T15:11:29.602Z,101050.47
2022-10-26T15:13:57.708Z,101039.53
2022-10-26T15:16:27.785Z,101051.69
2022-10-26T15:19:06.347Z,100990.50
2022-10-26T15:21:40.203Z,101061.63
2022-10-26T15:24:51.868Z,101059.16
2022-10-26T15:27:19.017Z,101058.41
2022-10-26T15:29:47.299Z,101063.81
2022-10-26T15:32:21.292Z,101060.53
2022-10-26T15:35:10.269Z,101064.13
2022-10-26T15:37:57.816Z,101066.94
2022-10-26T15:40:46.594Z,101064.44
2022-10-26T15:43:33.379Z,101066.41
2022-10-26T15:46:20.079Z,101070.94
2022-10-26T15:49:14.007Z,101069.38
2022-10-26T15:52:00.764Z,101056.53
2022-10-26T15:54:47.514Z,101068.81
2022-10-26T15:57:34.448Z,101076.00
2022-10-26T16:00:21.232Z,101082.38
2022-10-26T16:03:07.942Z,101091.28
2022-10-26T16:05:54.703Z,101088.81
2022-10-26T16:08:41.416Z,101095.97
2022-10-26T16:11:28.214Z,101089.13
2022-10-26T16:14:15.246Z,101095.38
2022-10-26T16:17:01.960Z,101088.59
2022-10-26T16:19:48.654Z,101094.75
2022-10-26T16:22:37.644Z,101098.44
2022-10-26T16:25:25.777Z,101109.09
2022-10-26T16:28:14.907Z,101105.72
2022-10-26T16:31:01.708Z,101112.88
2022-10-26T16:33:48.429Z,101107.75
2022-10-26T16:36:35.486Z,101123.69
2022-10-26T16:39:22.284Z,101121.19
2022-10-26T16:42:09.431Z,101126.63
2022-10-26T16:45:00.070Z,101124.94
2022-10-26T16:47:49.810Z,101125.94
2022-10-26T16:50:36.791Z,101101.00
2022-10-26T16:53:23.493Z,101135.84
2022-10-26T16:56:10.208Z,101135.94
2022-10-26T16:58:57.634Z,101142.19
2022-10-26T17:01:44.786Z,101143.22
2022-10-26T17:04:31.496Z,101139.09
2022-10-26T17:07:18.217Z,101148.72
2022-10-26T17:10:04.969Z,101139.97
2022-10-26T17:12:52.000Z,101147.09
2022-10-26T17:15:38.947Z,101147.19
2022-10-26T17:18:25.763Z,101141.16
2022-10-26T17:21:12.521Z,101145.59
2022-10-26T17:23:59.251Z,101150.13
2022-10-26T17:26:46.307Z,101125.88
2022-10-26T17:29:33.574Z,101149.38
2022-10-26T17:32:20.340Z,101158.31
2022-10-26T17:35:07.038Z,101141.88
2022-10-26T17:37:54.680Z,101162.84
2022-10-26T17:40:41.765Z,101170.84
2022-10-26T17:43:28.507Z,101165.63
2022-10-26T17:46:18.963Z,101170.16
2022-10-26T17:49:05.980Z,101175.47
2022-10-26T17:51:52.724Z,101177.31
2022-10-26T17:54:39.461Z,101180.88
2022-10-26T17:57:26.171Z,101176.56
2022-10-26T18:00:12.882Z,101185.44
2022-10-26T18:05:51.288Z,101175.19
2022-10-26T18:08:38.537Z,101165.00
2022-10-26T18:11:27.673Z,101195.31
2022-10-26T18:14:15.721Z,101200.63
2022-10-26T18:17:02.791Z,101208.59
2022-10-26T18:19:49.558Z,101211.25
2022-10-26T18:22:16.382Z,101195.66
2022-10-26T18:25:03.072Z,101209.63
2022-10-26T18:27:50.057Z,101214.91
2022-10-26T18:30:36.879Z,101193.19
2022-10-26T18:33:23.628Z,101215.00
2022-10-26T18:36:10.388Z,101223.81
2022-10-26T18:38:58.166Z,101228.25
2022-10-26T18:41:45.860Z,101228.28
2022-10-26T18:44:32.731Z,101223.06
2022-10-26T18:47:21.565Z,101240.63
2022-10-26T18:50:08.283Z,101244.16
2022-10-26T18:52:54.975Z,101247.69
2022-10-26T18:55:41.703Z,101235.50
2022-10-26T18:58:32.443Z,101233.69
2022-10-26T19:01:30.902Z,101239.88
2022-10-26T19:04:23.665Z,101233.78
2022-10-26T19:07:10.463Z,101242.56
2022-10-26T19:09:57.210Z,101246.97
2022-10-26T19:12:43.920Z,101245.16
2022-10-26T19:15:30.775Z,101247.78
2022-10-26T19:18:17.554Z,101249.53
2022-10-26T19:21:04.262Z,101254.78
2022-10-26T19:23:55.899Z,101246.00
2022-10-26T19:26:45.499Z,101246.88
2022-10-26T19:29:34.105Z,101243.38
2022-10-26T19:32:20.869Z,101185.25
2022-10-26T19:35:07.603Z,101238.97
2022-10-26T19:37:54.383Z,101244.28
2022-10-26T19:40:41.100Z,101252.31
2022-10-26T19:43:27.895Z,101265.47
2022-10-26T19:46:14.608Z,101258.47
2022-10-26T19:49:02.005Z,101254.09
2022-10-26T19:51:51.007Z,101241.81
2022-10-26T19:54:37.702Z,101249.72
2022-10-26T19:57:24.484Z,101196.91
2022-10-26T20:00:11.416Z,101257.72
2022-10-26T20:03:02.892Z,101261.28
2022-10-26T20:05:49.821Z,101185.06
2022-10-26T20:08:36.657Z,101271.91
2022-10-26T20:11:24.684Z,101252.88
2022-10-26T20:14:11.397Z,101272.00
2022-10-26T20:16:58.087Z,101276.41
2022-10-26T20:19:44.861Z,101282.63
2022-10-26T20:22:31.620Z,101281.78
2022-10-26T20:25:18.360Z,101301.19
2022-10-26T20:28:08.087Z,101271.69
2022-10-26T20:30:57.074Z,101300.41
2022-10-26T20:33:43.813Z,101289.09
2022-10-26T20:36:30.719Z,101303.06
2022-10-26T20:39:17.879Z,101311.03
2022-10-26T20:42:04.852Z,101306.69
2022-10-26T20:45:01.594Z,101318.13
2022-10-26T20:47:49.250Z,101327.84
2022-10-26T20:50:36.607Z,101325.25
2022-10-26T20:53:31.703Z,101327.06
2022-10-26T20:56:20.724Z,101324.56
2022-10-26T20:59:12.679Z,101333.28
2022-10-26T21:01:59.576Z,101320.28
2022-10-26T21:04:46.287Z,101326.31
2022-10-26T21:07:33.020Z,101328.16
2022-10-26T21:10:19.731Z,101309.94
2022-10-26T21:13:06.431Z,101334.38
2022-10-26T21:15:55.264Z,101254.56
2022-10-26T21:18:41.958Z,101328.28
2022-10-26T21:21:28.919Z,101317.88
2022-10-26T21:24:15.704Z,101310.78
2022-10-26T21:27:02.399Z,101306.47
2022-10-26T21:29:49.160Z,101318.81
2022-10-26T21:32:35.899Z,101310.88
2022-10-26T21:35:22.680Z,101311.81
2022-10-26T21:38:09.368Z,101317.97
2022-10-26T21:40:56.084Z,101317.16
2022-10-26T21:43:42.804Z,101316.31
2022-10-26T21:46:30.565Z,101320.72
2022-10-26T21:49:17.353Z,101324.31
2022-10-26T21:52:04.041Z,101326.94
2022-10-26T21:54:50.816Z,101323.47
2022-10-26T21:57:37.588Z,101319.16
2022-10-26T22:00:25.607Z,101297.41
2022-10-26T22:03:12.322Z,101303.59
2022-10-26T22:05:59.012Z,101328.00
2022-10-26T22:08:45.783Z,101323.69
2022-10-26T22:11:35.171Z,101336.00
2022-10-26T22:14:22.244Z,101329.91
2022-10-26T22:17:08.997Z,101349.22
2022-10-26T22:19:55.697Z,101362.41
2022-10-26T22:22:42.401Z,101363.34
2022-10-26T22:25:29.359Z,101367.75
2022-10-26T22:28:16.044Z,101333.97
2022-10-26T22:31:02.800Z,101350.47
2022-10-26T22:33:49.503Z,101365.22
2022-10-26T22:36:36.432Z,101367.03
2022-10-26T22:39:23.821Z,101367.06
2022-10-26T22:42:10.558Z,101364.47
2022-10-26T22:44:57.258Z,101277.66
2022-10-26T22:47:43.990Z,101371.53
2022-10-26T22:50:30.681Z,101368.94
2022-10-26T22:53:17.375Z,101372.47
2022-10-26T22:56:05.463Z,101369.84
2022-10-26T22:58:52.167Z,101364.63
2022-10-26T23:01:41.595Z,101355.94
2022-10-26T23:04:31.175Z,101362.09
2022-10-26T23:07:17.954Z,101373.50
2022-10-26T23:10:04.651Z,101366.53
2022-10-26T23:12:51.525Z,101377.94
2022-10-26T23:15:38.634Z,101371.88
2022-10-26T23:18:25.364Z,101373.63
2022-10-26T23:21:12.166Z,101381.53
2022-10-26T23:23:59.644Z,101380.69
2022-10-26T23:26:46.453Z,101389.50
2022-10-26T23:29:33.227Z,101389.50
2022-10-26T23:32:19.977Z,101394.81
2022-10-26T23:35:06.661Z,101370.41
2022-10-26T23:37:53.389Z,101391.31
2022-10-26T23:40:40.071Z,101394.84
2022-10-26T23:43:26.767Z,101388.75
2022-10-26T23:46:14.688Z,101388.75
2022-10-26T23:49:01.535Z,101382.66
2022-10-26T23:51:48.250Z,101283.59
2022-10-26T23:54:34.976Z,101387.94
2022-10-26T23:57:21.725Z,101387.13
